Time;durP1;ratioP1;P1;durP2;ratioP2;P2;SDS_P1;SDS_P2;PMS_P1;PMS_P2;Temp;Humidity;BMP_temperature;BMP_pressure;BME280_temperature;BME280_humidity;BME280_pressure;Samples;Min_cycle;Max_cycle;Signal;HPM_P1;HPM_P2
2023/08/18 00:00:47;;;;;;;5.03;4.63;;;;;;;;;;5016886;28;20025;-62
2023/08/18 00:03:12;;;;;;;4.82;4.13;;;;;;;;;;5035090;28;20021;-62
2023/08/18 00:05:38;;;;;;;4.22;3.88;;;;;;;;;;5034755;28;20036;-62
2023/08/18 00:08:03;;;;;;;6.80;4.18;;;;;;;;;;5034469;28;20030;-62
2023/08/18 00:10:28;;;;;;;4.32;3.83;;;;;;;;;;5034413;28;20037;-62
2023/08/18 00:12:54;;;;;;;5.03;4.53;;;;;;;;;;5034357;28;20033;-62
2023/08/18 00:15:19;;;;;;;5.13;4.72;;;;;;;;;;5016727;28;20038;-62
2023/08/18 00:17:45;;;;;;;5.07;4.40;;;;;;;;;;5034865;28;20033;-62
2023/08/18 00:20:10;;;;;;;5.22;4.43;;;;;;;;;;5052255;28;20045;-58
2023/08/18 00:22:36;;;;;;;4.57;4.13;;;;;;;;;;5048916;23;20048;-57
2023/08/18 00:25:01;;;;;;;7.03;4.35;;;;;;;;;;5054318;28;20100;-62
2023/08/18 00:27:34;;;;;;;6.28;4.35;;;;;;;;;;5054211;28;20029;-62
2023/08/18 00:29:59;;;;;;;4.57;4.18;;;;;;;;;;5053358;28;20028;-57
2023/08/18 00:32:28;;;;;;;4.18;3.88;;;;;;;;;;5054265;28;20029;-57
2023/08/18 00:34:53;;;;;;;4.68;3.78;;;;;;;;;;5036559;28;20094;-55
2023/08/18 00:37:21;;;;;;;4.90;4.13;;;;;;;;;;5052758;28;20074;-55
2023/08/18 00:39:46;;;;;;;4.50;4.15;;;;;;;;;;5035704;28;20049;-55
2023/08/18 00:42:12;;;;;;;5.05;4.65;;;;;;;;;;5054097;28;20024;-55
2023/08/18 00:44:37;;;;;;;4.97;4.30;;;;;;;;;;5052562;28;20025;-56
2023/08/18 00:47:03;;;;;;;7.03;5.07;;;;;;;;;;5054104;28;20531;-56
2023/08/18 00:49:29;;;;;;;5.72;5.10;;;;;;;;;;5053874;28;20111;-56
2023/08/18 00:51:56;;;;;;;4.82;4.45;;;;;;;;;;5053983;28;20033;-55
2023/08/18 00:54:21;;;;;;;4.93;4.50;;;;;;;;;;5035791;28;20094;-55
2023/08/18 00:56:47;;;;;;;5.90;4.30;;;;;;;;;;5053714;28;20555;-57
2023/08/18 00:59:13;;;;;;;4.78;4.32;;;;;;;;;;5035640;28;20028;-56
2023/08/18 01:01:39;;;;;;;5.70;4.38;;;;;;;;;;5035701;28;20467;-56
2023/08/18 01:04:05;;;;;;;4.82;4.47;;;;;;;;;;5053762;28;20009;-56
2023/08/18 01:06:31;;;;;;;5.20;4.70;;;;;;;;;;5054214;28;20031;-56
2023/08/18 01:08:57;;;;;;;4.88;4.47;;;;;;;;;;5035871;28;20414;-57
2023/08/18 01:11:27;;;;;;;9.35;4.60;;;;;;;;;;5054378;28;20029;-57
2023/08/18 01:13:57;;;;;;;5.05;4.30;;;;;;;;;;5035732;28;20021;-57
2023/08/18 01:16:22;;;;;;;;;;;;;;;;;;5036349;28;20029;-57
2023/08/18 01:18:49;;;;;;;4.90;4.40;;;;;;;;;;5053169;28;19913;-57
2023/08/18 01:21:16;;;;;;;7.10;4.22;;;;;;;;;;5053070;28;20354;-55
2023/08/18 01:23:42;;;;;;;5.93;4.13;;;;;;;;;;5053371;28;20037;-55
2023/08/18 01:26:07;;;;;;;4.95;4.45;;;;;;;;;;5035310;28;20051;-56
2023/08/18 01:28:33;;;;;;;4.90;4.50;;;;;;;;;;5053390;28;20017;-58
2023/08/18 01:31:00;;;;;;;5.07;4.68;;;;;;;;;;5053554;28;20486;-58
2023/08/18 01:33:32;;;;;;;6.28;5.63;;;;;;;;;;5053783;28;20108;-58
2023/08/18 01:36:00;;;;;;;5.88;5.20;;;;;;;;;;5053721;28;20028;-58
2023/08/18 01:38:28;;;;;;;6.00;5.00;;;;;;;;;;5035472;28;20033;-56
2023/08/18 01:40:55;;;;;;;5.63;5.13;;;;;;;;;;5055854;28;20029;-56
2023/08/18 01:43:20;;;;;;;7.07;6.10;;;;;;;;;;5057266;28;20017;-56
2023/08/18 01:45:47;;;;;;;5.85;5.07;;;;;;;;;;5055893;28;20040;-56
2023/08/18 01:48:13;;;;;;;5.38;4.53;;;;;;;;;;5055849;28;20459;-56
2023/08/18 01:50:38;;;;;;;6.13;4.55;;;;;;;;;;5057022;28;20521;-55
2023/08/18 01:53:03;;;;;;;5.43;4.93;;;;;;;;;;5039830;28;20040;-55
2023/08/18 01:55:29;;;;;;;7.40;4.78;;;;;;;;;;5039312;28;20032;-55
2023/08/18 01:57:54;;;;;;;5.35;4.55;;;;;;;;;;5055695;28;20417;-55
2023/08/18 02:00:20;;;;;;;5.10;4.68;;;;;;;;;;5038713;28;20387;-56
2023/08/18 02:02:45;;;;;;;4.95;4.55;;;;;;;;;;5056832;28;20025;-56
2023/08/18 02:05:10;;;;;;;5.18;4.78;;;;;;;;;;5039080;28;20113;-56
2023/08/18 02:07:36;;;;;;;6.05;4.88;;;;;;;;;;5056799;28;20024;-56
2023/08/18 02:10:01;;;;;;;5.57;4.53;;;;;;;;;;5056696;28;20484;-56
2023/08/18 02:12:26;;;;;;;6.00;4.40;;;;;;;;;;5056699;28;20033;-56
2023/08/18 02:14:52;;;;;;;5.32;4.30;;;;;;;;;;5055359;28;20119;-57
2023/08/18 02:17:17;;;;;;;5.57;4.20;;;;;;;;;;5056867;28;20037;-57
2023/08/18 02:19:43;;;;;;;6.05;5.45;;;;;;;;;;5056412;28;20024;-57
2023/08/18 02:22:10;;;;;;;5.60;5.10;;;;;;;;;;5038591;28;20037;-57
2023/08/18 02:24:36;;;;;;;5.15;4.72;;;;;;;;;;5056938;28;20104;-57
2023/08/18 02:27:01;;;;;;;4.93;4.43;;;;;;;;;;5056367;28;20025;-58
2023/08/18 02:29:26;;;;;;;5.25;4.70;;;;;;;;;;5055072;28;20033;-58
2023/08/18 02:31:52;;;;;;;4.82;4.35;;;;;;;;;;5056498;28;20100;-58
2023/08/18 02:34:18;;;;;;;4.75;4.32;;;;;;;;;;5056286;28;20029;-58
2023/08/18 02:36:43;;;;;;;4.35;4.05;;;;;;;;;;5056458;28;20047;-58
2023/08/18 02:39:08;;;;;;;5.00;4.30;;;;;;;;;;5038196;28;20083;-57
2023/08/18 02:41:34;;;;;;;5.03;4.68;;;;;;;;;;5056195;28;20025;-57
2023/08/18 02:43:59;;;;;;;6.55;4.43;;;;;;;;;;5056393;28;20029;-57
2023/08/18 02:46:25;;;;;;;7.53;4.72;;;;;;;;;;5054694;28;20116;-57
2023/08/18 02:48:50;;;;;;;7.18;5.30;;;;;;;;;;5038160;28;20409;-56
2023/08/18 02:51:19;;;;;;;9.57;6.10;;;;;;;;;;5053835;28;20065;-57
2023/08/18 02:53:48;;;;;;;7.53;5.88;;;;;;;;;;5037821;28;20025;-56
2023/08/18 02:56:14;;;;;;;6.57;5.60;;;;;;;;;;5055874;28;20041;-56
2023/08/18 02:58:39;;;;;;;7.63;5.25;;;;;;;;;;5037942;28;20028;-56
2023/08/18 03:01:05;;;;;;;5.28;4.85;;;;;;;;;;5056119;28;20152;-56
2023/08/18 03:03:31;;;;;;;5.20;4.72;;;;;;;;;;5056437;28;20025;-56
2023/08/18 03:06:00;;;;;;;5.95;4.82;;;;;;;;;;5055732;28;20365;-57
2023/08/18 03:08:26;;;;;;;5.95;5.35;;;;;;;;;;5055936;28;20041;-57
2023/08/18 03:10:58;;;;;;;6.88;5.10;;;;;;;;;;5055598;28;20025;-57
2023/08/18 03:13:23;;;;;;;5.97;4.07;;;;;;;;;;5055786;28;20029;-56
2023/08/18 03:15:49;;;;;;;6.55;5.30;;;;;;;;;;5055797;28;20075;-56
2023/08/18 03:18:14;;;;;;;10.38;4.97;;;;;;;;;;5054028;28;20452;-56
2023/08/18 03:20:39;;;;;;;5.40;4.90;;;;;;;;;;5055485;28;20025;-56
2023/08/18 03:23:05;;;;;;;5.85;4.57;;;;;;;;;;5037281;28;20045;-56
2023/08/18 03:25:30;;;;;;;8.63;5.10;;;;;;;;;;5055306;28;20390;-56
2023/08/18 03:27:56;;;;;;;5.47;5.00;;;;;;;;;;5055275;28;20025;-56
2023/08/18 03:30:21;;;;;;;4.82;4.43;;;;;;;;;;5053986;28;20025;-56
2023/08/18 03:32:48;;;;;;;5.30;4.85;;;;;;;;;;5055509;28;20021;-56
2023/08/18 03:35:13;;;;;;;6.35;4.95;;;;;;;;;;5053889;28;20036;-55
2023/08/18 03:37:39;;;;;;;5.97;4.95;;;;;;;;;;5037242;28;20041;-55
2023/08/18 03:40:04;;;;;;;5.35;4.78;;;;;;;;;;5053983;28;20032;-56
2023/08/18 03:42:30;;;;;;;5.50;5.00;;;;;;;;;;5055198;28;20060;-56
2023/08/18 03:44:55;;;;;;;5.35;4.80;;;;;;;;;;5053661;28;20033;-55
2023/08/18 03:47:22;;;;;;;6.80;5.32;;;;;;;;;;5053614;28;20116;-56
2023/08/18 03:49:48;;;;;;;5.18;4.70;;;;;;;;;;5053701;28;20052;-55
2023/08/18 03:52:13;;;;;;;7.32;5.55;;;;;;;;;;5036745;28;20504;-56
2023/08/18 03:54:40;;;;;;;6.00;5.30;;;;;;;;;;5053627;28;20155;-56
2023/08/18 03:57:06;;;;;;;7.00;5.45;;;;;;;;;;5036748;28;20471;-56
2023/08/18 03:59:31;;;;;;;6.82;4.75;;;;;;;;;;5037441;28;20079;-56
2023/08/18 04:01:57;;;;;;;7.07;4.88;;;;;;;;;;5053281;28;20029;-56
2023/08/18 04:04:22;;;;;;;5.03;4.55;;;;;;;;;;5053580;28;20079;-56
2023/08/18 04:06:47;;;;;;;6.35;5.22;;;;;;;;;;5053008;28;20502;-56
2023/08/18 04:09:16;;;;;;;6.45;5.05;;;;;;;;;;5053566;28;20386;-56
2023/08/18 04:11:42;;;;;;;6.00;5.03;;;;;;;;;;5036561;28;20029;-56
2023/08/18 04:14:09;;;;;;;5.50;4.90;;;;;;;;;;5036295;28;20025;-56
2023/08/18 04:16:36;;;;;;;9.60;5.13;;;;;;;;;;5036846;28;20029;-56
2023/08/18 04:19:03;;;;;;;6.13;5.63;;;;;;;;;;5054874;28;20104;-56
2023/08/18 04:21:30;;;;;;;6.63;5.82;;;;;;;;;;5035752;28;20035;-56
2023/08/18 04:23:55;;;;;;;6.20;4.95;;;;;;;;;;5052811;28;20040;-56
2023/08/18 04:26:21;;;;;;;5.82;5.13;;;;;;;;;;5053539;28;20051;-55
2023/08/18 04:28:47;;;;;;;5.47;4.90;;;;;;;;;;5052619;28;20546;-56
2023/08/18 04:31:12;;;;;;;5.40;4.72;;;;;;;;;;5053473;28;20543;-57
2023/08/18 04:33:45;;;;;;;5.25;4.75;;;;;;;;;;5054308;28;20438;-57
2023/08/18 04:36:11;;;;;;;5.65;5.13;;;;;;;;;;5052633;28;20111;-59
2023/08/18 04:38:37;;;;;;;5.43;4.95;;;;;;;;;;5052590;28;20079;-58
2023/08/18 04:41:06;;;;;;;5.63;5.13;;;;;;;;;;5053926;28;20059;-57
2023/08/18 04:43:33;;;;;;;6.13;4.82;;;;;;;;;;5036754;28;20544;-57
2023/08/18 04:46:00;;;;;;;6.43;5.38;;;;;;;;;;5036318;28;20029;-58
2023/08/18 04:48:26;;;;;;;6.00;5.40;;;;;;;;;;5052250;28;20029;-59
2023/08/18 04:50:52;;;;;;;6.22;5.30;;;;;;;;;;5052951;28;20078;-57
2023/08/18 04:53:17;;;;;;;5.72;5.28;;;;;;;;;;5035790;28;20036;-57
2023/08/18 04:55:43;;;;;;;5.32;4.85;;;;;;;;;;5053716;28;20028;-57
2023/08/18 04:58:12;;;;;;;5.95;5.25;;;;;;;;;;5053949;28;20025;-57
2023/08/18 05:00:44;;;;;;;5.28;4.93;;;;;;;;;;5032893;28;20024;-62
2023/08/18 05:03:10;;;;;;;5.38;4.88;;;;;;;;;;5035325;28;20033;-62
2023/08/18 05:05:56;;;;;;;5.65;5.15;;;;;;;;;;5051745;28;20028;-57
2023/08/18 05:08:21;;;;;;;6.00;4.90;;;;;;;;;;5036128;28;20044;-62
2023/08/18 05:10:47;;;;;;;6.68;6.00;;;;;;;;;;5050757;28;20036;-62
2023/08/18 05:13:12;;;;;;;7.15;6.47;;;;;;;;;;5035921;28;20037;-62
2023/08/18 05:15:38;;;;;;;6.22;5.63;;;;;;;;;;5037288;28;20029;-57
2023/08/18 05:18:04;;;;;;;7.07;6.30;;;;;;;;;;5053272;28;20025;-57
2023/08/18 05:20:29;;;;;;;9.88;6.57;;;;;;;;;;5053361;28;20414;-57
2023/08/18 05:22:55;;;;;;;6.85;6.13;;;;;;;;;;5053696;28;20043;-62
2023/08/18 05:25:20;;;;;;;6.78;5.93;;;;;;;;;;5053772;28;20037;-62
2023/08/18 05:27:46;;;;;;;6.40;5.57;;;;;;;;;;5035653;28;20032;-63
2023/08/18 05:30:12;;;;;;;5.95;5.45;;;;;;;;;;5053821;28;20079;-63
2023/08/18 05:32:37;;;;;;;5.90;5.40;;;;;;;;;;5053486;28;20033;-63
2023/08/18 05:35:04;;;;;;;6.15;5.35;;;;;;;;;;5053176;28;20423;-63
2023/08/18 05:37:29;;;;;;;8.10;6.25;;;;;;;;;;5052969;28;20074;-62
2023/08/18 05:39:56;;;;;;;7.25;5.35;;;;;;;;;;5053784;28;20029;-62
2023/08/18 05:42:21;;;;;;;9.00;6.45;;;;;;;;;;5035163;28;20061;-62
2023/08/18 05:44:47;;;;;;;7.10;6.30;;;;;;;;;;5053189;28;20061;-57
2023/08/18 05:47:12;;;;;;;6.80;6.10;;;;;;;;;;5053816;28;20032;-57
2023/08/18 05:49:38;;;;;;;6.30;5.72;;;;;;;;;;5050627;28;20029;-57
2023/08/18 05:52:03;;;;;;;6.28;5.68;;;;;;;;;;5052778;28;20036;-57
2023/08/18 05:54:29;;;;;;;8.00;5.70;;;;;;;;;;5052528;28;20029;-57
2023/08/18 05:56:54;;;;;;;5.28;4.78;;;;;;;;;;5052410;28;20036;-57
2023/08/18 05:59:19;;;;;;;6.00;5.32;;;;;;;;;;5052119;28;20079;-57
2023/08/18 06:01:45;;;;;;;5.60;5.10;;;;;;;;;;5051401;28;20116;-57
2023/08/18 06:04:10;;;;;;;5.90;5.20;;;;;;;;;;5050842;28;20183;-57
2023/08/18 06:06:36;;;;;;;5.75;5.25;;;;;;;;;;5051032;28;20035;-58
2023/08/18 06:09:01;;;;;;;8.52;5.07;;;;;;;;;;5051335;28;20039;-57
2023/08/18 06:11:27;;;;;;;5.50;5.10;;;;;;;;;;5051288;28;20125;-57
2023/08/18 06:13:52;;;;;;;6.07;4.97;;;;;;;;;;5051051;28;20124;-57
2023/08/18 06:16:17;;;;;;;5.45;4.95;;;;;;;;;;5051724;28;20032;-57
2023/08/18 06:18:43;;;;;;;5.15;4.65;;;;;;;;;;5051997;28;20040;-57
2023/08/18 06:21:08;;;;;;;5.60;4.35;;;;;;;;;;5035147;28;20075;-57
2023/08/18 06:23:34;;;;;;;5.25;4.38;;;;;;;;;;5052942;28;20044;-57
2023/08/18 06:25:59;;;;;;;5.25;4.75;;;;;;;;;;5052960;28;20033;-57
2023/08/18 06:28:25;;;;;;;5.07;4.57;;;;;;;;;;5056015;28;20471;-57
2023/08/18 06:30:52;;;;;;;4.97;4.53;;;;;;;;;;5056566;28;20036;-57
2023/08/18 06:33:17;;;;;;;5.20;4.80;;;;;;;;;;5056528;28;20114;-57
2023/08/18 06:35:45;;;;;;;4.20;4.00;;;;;;;;;;5056403;28;20467;-57
2023/08/18 06:38:11;;;;;;;5.38;4.25;;;;;;;;;;5056431;28;20037;-57
2023/08/18 06:40:36;;;;;;;4.28;3.92;;;;;;;;;;5056274;28;20041;-57
2023/08/18 06:43:01;;;;;;;7.30;4.57;;;;;;;;;;5038332;28;20020;-57
2023/08/18 06:45:27;;;;;;;4.80;4.30;;;;;;;;;;5038248;28;20035;-57
2023/08/18 06:47:52;;;;;;;4.75;4.13;;;;;;;;;;5056088;28;20079;-57
2023/08/18 06:50:18;;;;;;;4.18;3.88;;;;;;;;;;5056127;28;20128;-57
2023/08/18 06:52:43;;;;;;;4.10;3.80;;;;;;;;;;5055986;28;20037;-58
2023/08/18 06:55:13;;;;;;;4.78;4.38;;;;;;;;;;5055943;28;20024;-58
2023/08/18 06:57:39;;;;;;;4.80;4.43;;;;;;;;;;5038383;28;20033;-57
2023/08/18 07:00:06;;;;;;;5.35;4.80;;;;;;;;;;5055877;28;20475;-58
2023/08/18 07:02:31;;;;;;;5.50;4.93;;;;;;;;;;5056037;28;20037;-58
2023/08/18 07:04:57;;;;;;;5.07;4.68;;;;;;;;;;5055725;28;20490;-58
2023/08/18 07:07:22;;;;;;;5.18;4.68;;;;;;;;;;5056365;28;20036;-58
2023/08/18 07:09:49;;;;;;;5.03;4.60;;;;;;;;;;5055973;28;20039;-57
2023/08/18 07:12:14;;;;;;;6.72;4.70;;;;;;;;;;5055891;28;20029;-58
2023/08/18 07:14:39;;;;;;;6.38;4.70;;;;;;;;;;5055357;28;20429;-58
2023/08/18 07:17:05;;;;;;;6.07;4.55;;;;;;;;;;5037793;28;20337;-58
2023/08/18 07:19:31;;;;;;;5.15;4.75;;;;;;;;;;5055507;28;20031;-57
2023/08/18 07:21:57;;;;;;;5.13;4.72;;;;;;;;;;5055170;28;20398;-57
2023/08/18 07:24:22;;;;;;;5.93;5.05;;;;;;;;;;5020898;28;20100;-57
2023/08/18 07:26:47;;;;;;;5.00;4.60;;;;;;;;;;5055614;28;20108;-57
2023/08/18 07:29:13;;;;;;;7.97;5.75;;;;;;;;;;5055760;28;20398;-57
2023/08/18 07:31:38;;;;;;;5.30;4.90;;;;;;;;;;5055179;28;20047;-57
2023/08/18 07:34:03;;;;;;;4.65;4.28;;;;;;;;;;5055378;28;20097;-58
2023/08/18 07:36:29;;;;;;;7.10;5.10;;;;;;;;;;5055366;28;20413;-58
2023/08/18 07:38:54;;;;;;;5.82;4.80;;;;;;;;;;5054536;28;20438;-57
2023/08/18 07:41:20;;;;;;;5.55;5.10;;;;;;;;;;5055074;28;20036;-58
2023/08/18 07:43:45;;;;;;;5.90;5.40;;;;;;;;;;5055176;28;20463;-57
2023/08/18 07:46:10;;;;;;;5.03;4.65;;;;;;;;;;5054986;28;20024;-57
2023/08/18 07:48:37;;;;;;;5.72;5.05;;;;;;;;;;5054940;28;20104;-58
2023/08/18 07:51:02;;;;;;;5.32;4.88;;;;;;;;;;5055573;28;20029;-58
2023/08/18 07:53:27;;;;;;;5.63;5.15;;;;;;;;;;5055103;28;20507;-58
2023/08/18 07:55:53;;;;;;;6.25;5.65;;;;;;;;;;5055125;28;20025;-58
2023/08/18 07:58:18;;;;;;;8.05;5.85;;;;;;;;;;5055204;28;20091;-58
2023/08/18 08:00:44;;;;;;;5.15;4.75;;;;;;;;;;5055223;28;20035;-58
2023/08/18 08:03:09;;;;;;;12.77;5.13;;;;;;;;;;5054784;28;20052;-57
2023/08/18 08:05:34;;;;;;;8.38;5.75;;;;;;;;;;5055111;28;20047;-58
2023/08/18 08:08:00;;;;;;;7.15;5.00;;;;;;;;;;5055055;28;20048;-57
2023/08/18 08:10:25;;;;;;;6.10;5.50;;;;;;;;;;5054477;28;20098;-58
2023/08/18 08:12:51;;;;;;;5.60;4.75;;;;;;;;;;5054684;28;20115;-57
2023/08/18 08:15:17;;;;;;;5.55;4.40;;;;;;;;;;5055091;28;20029;-58
2023/08/18 08:17:42;;;;;;;4.38;4.00;;;;;;;;;;5054553;28;20059;-58
2023/08/18 08:20:11;;;;;;;5.82;4.32;;;;;;;;;;5054326;28;20083;-57
2023/08/18 08:22:36;;;;;;;4.90;4.43;;;;;;;;;;5054470;28;20064;-58
2023/08/18 08:25:03;;;;;;;4.40;4.05;;;;;;;;;;5054717;28;20075;-58
2023/08/18 08:27:28;;;;;;;5.40;4.13;;;;;;;;;;5054294;28;20426;-58
2023/08/18 08:29:53;;;;;;;4.38;4.07;;;;;;;;;;5054931;28;20037;-58
2023/08/18 08:32:19;;;;;;;5.07;4.53;;;;;;;;;;5054861;28;20029;-58
2023/08/18 08:34:47;;;;;;;5.30;4.53;;;;;;;;;;5054096;28;20070;-63
2023/08/18 08:37:13;;;;;;;5.07;4.28;;;;;;;;;;5054480;28;20040;-63
2023/08/18 08:39:38;;;;;;;6.65;5.22;;;;;;;;;;5054566;28;20025;-63
2023/08/18 08:42:04;;;;;;;6.55;5.75;;;;;;;;;;5054095;28;20459;-63
2023/08/18 08:44:29;;;;;;;6.13;5.65;;;;;;;;;;5054017;28;20111;-63
2023/08/18 08:46:54;;;;;;;7.75;5.82;;;;;;;;;;5053990;28;20021;-62
2023/08/18 08:49:23;;;;;;;5.82;5.32;;;;;;;;;;5053777;28;20448;-62
2023/08/18 08:51:50;;;;;;;9.45;5.90;;;;;;;;;;5054182;28;20032;-58
2023/08/18 08:54:18;;;;;;;7.75;6.50;;;;;;;;;;5053972;28;20029;-57
2023/08/18 08:56:43;;;;;;;7.15;6.45;;;;;;;;;;5054328;28;20021;-57
2023/08/18 08:59:09;;;;;;;9.25;5.93;;;;;;;;;;5053948;28;20033;-57
2023/08/18 09:01:35;;;;;;;6.25;5.78;;;;;;;;;;5053681;28;20013;-57
2023/08/18 09:04:01;;;;;;;6.25;5.65;;;;;;;;;;5053668;28;20052;-57
2023/08/18 09:06:26;;;;;;;5.65;5.13;;;;;;;;;;5054281;28;20029;-58
2023/08/18 09:08:52;;;;;;;5.85;5.43;;;;;;;;;;5054006;28;20078;-62
2023/08/18 09:11:17;;;;;;;5.40;4.90;;;;;;;;;;5054169;28;20032;-62
2023/08/18 09:13:42;;;;;;;7.50;6.70;;;;;;;;;;5036479;28;20106;-63
2023/08/18 09:16:10;;;;;;;7.13;6.53;;;;;;;;;;5054062;28;20022;-58
2023/08/18 09:18:36;;;;;;;7.55;6.18;;;;;;;;;;5053458;28;20036;-58
2023/08/18 09:21:04;;;;;;;6.63;6.10;;;;;;;;;;5053946;28;20036;-58
2023/08/18 09:23:30;;;;;;;7.35;6.65;;;;;;;;;;5053914;28;20044;-58
2023/08/18 09:25:56;;;;;;;6.55;5.80;;;;;;;;;;5053408;28;20025;-58
2023/08/18 09:28:21;;;;;;;8.02;5.68;;;;;;;;;;5053716;28;20374;-58
2023/08/18 09:30:47;;;;;;;6.85;6.25;;;;;;;;;;5035561;28;20033;-58
2023/08/18 09:33:12;;;;;;;8.20;7.07;;;;;;;;;;5053360;28;20104;-58
2023/08/18 09:35:37;;;;;;;8.90;7.10;;;;;;;;;;5035451;28;20418;-58
2023/08/18 09:38:05;;;;;;;7.72;6.90;;;;;;;;;;5065473;22;20049;-58
2023/08/18 09:40:30;;;;;;;11.43;8.60;;;;;;;;;;5066532;23;20076;-58
2023/08/18 09:42:56;;;;;;;10.93;9.30;;;;;;;;;;5053522;28;20079;-58
2023/08/18 09:45:22;;;;;;;10.88;9.77;;;;;;;;;;5035346;28;20052;-58
2023/08/18 09:47:50;;;;;;;11.90;9.75;;;;;;;;;;5053221;28;20037;-58
2023/08/18 09:50:17;;;;;;;9.82;8.88;;;;;;;;;;5053431;28;20029;-58
2023/08/18 09:52:44;;;;;;;9.57;8.68;;;;;;;;;;5053435;28;20112;-58
2023/08/18 09:55:16;;;;;;;11.38;9.70;;;;;;;;;;5053104;28;20033;-58
2023/08/18 09:57:47;;;;;;;8.07;6.82;;;;;;;;;;5053412;28;20056;-58
2023/08/18 10:00:14;;;;;;;8.48;7.15;;;;;;;;;;5052900;28;20044;-58
2023/08/18 10:02:41;;;;;;;9.82;7.60;;;;;;;;;;5038708;28;20479;-58
2023/08/18 10:05:06;;;;;;;7.65;6.65;;;;;;;;;;5038890;28;20070;-58
2023/08/18 10:07:33;;;;;;;7.88;7.13;;;;;;;;;;5056965;28;20037;-58
2023/08/18 10:09:59;;;;;;;10.35;8.57;;;;;;;;;;5056766;28;20056;-58
2023/08/18 10:12:25;;;;;;;7.93;7.28;;;;;;;;;;5056625;28;20086;-58
2023/08/18 10:14:51;;;;;;;13.48;9.63;;;;;;;;;;5056687;28;20029;-58
2023/08/18 10:17:21;;;;;;;11.55;10.02;;;;;;;;;;5056559;28;20386;-58
2023/08/18 10:19:52;;;;;;;11.13;9.43;;;;;;;;;;5038251;28;20123;-63
2023/08/18 10:22:18;;;;;;;11.80;10.18;;;;;;;;;;5056578;28;20072;-63
2023/08/18 10:24:45;;;;;;;12.77;9.15;;;;;;;;;;5056619;28;20463;-63
2023/08/18 10:27:29;;;;;;;11.25;8.98;;;;;;;;;;5056507;28;20029;-63
2023/08/18 10:29:57;;;;;;;10.60;9.55;;;;;;;;;;5056538;28;20072;-63
2023/08/18 10:32:22;;;;;;;10.02;8.98;;;;;;;;;;5056699;28;20208;-63
2023/08/18 10:34:49;;;;;;;9.55;8.75;;;;;;;;;;5056320;28;20040;-63
2023/08/18 10:37:15;;;;;;;10.23;8.77;;;;;;;;;;5056420;28;20033;-58
2023/08/18 10:39:41;;;;;;;9.70;8.80;;;;;;;;;;5056442;28;20033;-58
2023/08/18 10:42:07;;;;;;;12.52;9.25;;;;;;;;;;5056108;28;20045;-58
2023/08/18 10:44:33;;;;;;;10.27;9.10;;;;;;;;;;5056496;28;20048;-63
2023/08/18 10:47:00;;;;;;;8.60;7.75;;;;;;;;;;5056416;28;20037;-63
2023/08/18 10:49:26;;;;;;;11.10;9.18;;;;;;;;;;5056772;28;20375;-63
2023/08/18 10:51:53;;;;;;;9.85;8.80;;;;;;;;;;5056567;28;20348;-63
2023/08/18 10:54:18;;;;;;;13.25;9.82;;;;;;;;;;5056186;28;20025;-63
2023/08/18 10:56:43;;;;;;;10.30;9.30;;;;;;;;;;5055994;28;20033;-63
2023/08/18 10:59:09;;;;;;;13.02;9.57;;;;;;;;;;5055796;28;20051;-63
2023/08/18 11:01:35;;;;;;;10.75;8.07;;;;;;;;;;5056095;28;20116;-63
2023/08/18 11:04:00;;;;;;;8.27;6.97;;;;;;;;;;5055765;28;20032;-63
2023/08/18 11:06:26;;;;;;;9.10;7.22;;;;;;;;;;5056452;28;20074;-63
2023/08/18 11:08:53;;;;;;;8.85;7.72;;;;;;;;;;5038519;28;20056;-63
2023/08/18 11:11:19;;;;;;;8.98;7.63;;;;;;;;;;5037868;28;20097;-63
2023/08/18 11:13:44;;;;;;;8.68;7.50;;;;;;;;;;5054781;28;20074;-63
2023/08/18 11:16:10;;;;;;;8.30;7.15;;;;;;;;;;5055833;28;20104;-63
2023/08/18 11:18:36;;;;;;;8.93;8.02;;;;;;;;;;5055764;28;20029;-63
2023/08/18 11:21:01;;;;;;;8.77;7.90;;;;;;;;;;5055339;28;20052;-58
2023/08/18 11:23:27;;;;;;;10.43;9.25;;;;;;;;;;5055432;28;20021;-58
2023/08/18 11:25:52;;;;;;;9.60;7.65;;;;;;;;;;5037581;28;20380;-58
2023/08/18 11:28:18;;;;;;;9.02;7.88;;;;;;;;;;5056056;28;20029;-58
2023/08/18 11:30:44;;;;;;;8.45;7.68;;;;;;;;;;5055589;28;20108;-58
2023/08/18 11:33:10;;;;;;;9.40;8.45;;;;;;;;;;5055473;28;20044;-58
2023/08/18 11:35:36;;;;;;;9.18;8.27;;;;;;;;;;5055166;28;20029;-58
2023/08/18 11:38:01;;;;;;;11.32;9.13;;;;;;;;;;5055061;28;20414;-58
2023/08/18 11:40:27;;;;;;;24.58;9.55;;;;;;;;;;5053811;28;20047;-58
2023/08/18 11:42:53;;;;;;;7.85;7.10;;;;;;;;;;5044732;28;20376;-59
2023/08/18 11:45:25;;;;;;;9.38;7.30;;;;;;;;;;5022941;28;20022;-64
2023/08/18 11:48:01;;;;;;;7.28;6.38;;;;;;;;;;5035106;28;20044;-63
2023/08/18 11:50:30;;;;;;;9.90;8.45;;;;;;;;;;5040376;28;20406;-63
2023/08/18 11:52:55;;;;;;;7.30;6.60;;;;;;;;;;5025850;28;20013;-63
2023/08/18 11:55:34;;;;;;;9.77;6.50;;;;;;;;;;5046095;28;20075;-63
2023/08/18 11:58:04;;;;;;;8.68;7.78;;;;;;;;;;5025713;28;20075;-63
2023/08/18 12:00:30;;;;;;;;;;;;;;;;;;5042972;28;20087;-58
2023/08/18 12:02:55;;;;;;;7.47;6.88;;;;;;;;;;5042894;28;19909;-58
2023/08/18 12:05:22;;;;;;;7.68;6.97;;;;;;;;;;5044389;28;20025;-63
2023/08/18 12:07:49;;;;;;;8.70;7.95;;;;;;;;;;5044591;28;20151;-63
2023/08/18 12:10:14;;;;;;;9.23;8.30;;;;;;;;;;5043118;28;20406;-64
2023/08/18 12:12:40;;;;;;;8.75;7.85;;;;;;;;;;5044416;28;20032;-58
2023/08/18 12:15:05;;;;;;;7.90;7.15;;;;;;;;;;5050003;28;20371;-58
2023/08/18 12:17:31;;;;;;;7.05;6.47;;;;;;;;;;5054826;28;20029;-60
2023/08/18 12:19:57;;;;;;;10.20;7.70;;;;;;;;;;5054901;28;20016;-59
2023/08/18 12:22:22;;;;;;;8.20;7.40;;;;;;;;;;5054285;28;20493;-60
2023/08/18 12:24:47;;;;;;;10.75;7.90;;;;;;;;;;5054338;28;20021;-59
2023/08/18 12:27:13;;;;;;;8.20;7.10;;;;;;;;;;5054312;28;20397;-59
2023/08/18 12:29:38;;;;;;;13.90;7.70;;;;;;;;;;5054356;28;20113;-59
2023/08/18 12:32:04;;;;;;;8.18;7.28;;;;;;;;;;5054122;28;20033;-59
2023/08/18 12:34:29;;;;;;;8.60;7.65;;;;;;;;;;5054674;28;20032;-60
2023/08/18 12:36:58;;;;;;;11.98;8.00;;;;;;;;;;5036264;28;20112;-59
2023/08/18 12:39:24;;;;;;;10.52;8.40;;;;;;;;;;5054249;28;20033;-59
2023/08/18 12:41:49;;;;;;;11.60;7.63;;;;;;;;;;5053817;28;20179;-59
2023/08/18 12:44:14;;;;;;;10.07;7.75;;;;;;;;;;5054666;28;20021;-59
2023/08/18 12:46:40;;;;;;;14.35;8.02;;;;;;;;;;5054104;28;20029;-60
2023/08/18 12:49:05;;;;;;;8.65;7.85;;;;;;;;;;5054346;28;20485;-59
2023/08/18 12:51:31;;;;;;;11.15;7.45;;;;;;;;;;5054097;28;20033;-59
2023/08/18 12:53:56;;;;;;;11.63;7.72;;;;;;;;;;5035946;28;20021;-59
2023/08/18 12:56:21;;;;;;;10.50;7.68;;;;;;;;;;5054011;28;20033;-59
2023/08/18 12:58:47;;;;;;;9.38;8.43;;;;;;;;;;5053687;28;20055;-59
2023/08/18 13:01:12;;;;;;;9.55;7.90;;;;;;;;;;5053892;28;20132;-59
2023/08/18 13:03:39;;;;;;;10.18;8.10;;;;;;;;;;5053681;28;20355;-59
2023/08/18 13:06:04;;;;;;;9.48;7.50;;;;;;;;;;5035762;28;20044;-59
2023/08/18 13:08:30;;;;;;;10.27;8.18;;;;;;;;;;5035797;28;20479;-59
2023/08/18 13:10:55;;;;;;;9.50;7.82;;;;;;;;;;5053567;28;20037;-59
2023/08/18 13:13:21;;;;;;;9.98;9.00;;;;;;;;;;5036247;28;20029;-59
2023/08/18 13:15:46;;;;;;;11.85;9.25;;;;;;;;;;5053897;28;20029;-60
2023/08/18 13:18:13;;;;;;;8.75;7.65;;;;;;;;;;5053479;28;20108;-59
2023/08/18 13:20:39;;;;;;;12.40;8.82;;;;;;;;;;5053637;28;20025;-60
2023/08/18 13:23:04;;;;;;;11.15;8.65;;;;;;;;;;5053418;28;20490;-59
2023/08/18 13:25:31;;;;;;;9.77;8.30;;;;;;;;;;5053982;28;20033;-59
2023/08/18 13:27:56;;;;;;;9.82;6.90;;;;;;;;;;5053393;28;20029;-59
2023/08/18 13:30:22;;;;;;;8.40;7.57;;;;;;;;;;5035509;28;20033;-60
2023/08/18 13:32:47;;;;;;;16.10;8.38;;;;;;;;;;5035736;28;20017;-60
2023/08/18 13:35:12;;;;;;;8.02;7.30;;;;;;;;;;5053508;28;20033;-60
2023/08/18 13:37:38;;;;;;;10.43;8.27;;;;;;;;;;5057030;28;20475;-59
2023/08/18 13:40:04;;;;;;;9.80;8.90;;;;;;;;;;5057606;28;20112;-60
2023/08/18 13:42:29;;;;;;;9.77;8.73;;;;;;;;;;5057773;28;20408;-60
2023/08/18 13:44:55;;;;;;;14.68;8.77;;;;;;;;;;5057844;28;20414;-59
2023/08/18 13:47:20;;;;;;;11.32;8.32;;;;;;;;;;5057221;28;20430;-59
2023/08/18 13:49:46;;;;;;;12.45;10.70;;;;;;;;;;5057428;28;20505;-59
2023/08/18 13:52:11;;;;;;;12.75;9.35;;;;;;;;;;5057390;28;20029;-59
2023/08/18 13:54:37;;;;;;;12.60;10.02;;;;;;;;;;5057286;28;20036;-59
2023/08/18 13:57:03;;;;;;;9.98;8.30;;;;;;;;;;5039556;28;20033;-59
2023/08/18 13:59:29;;;;;;;12.20;7.82;;;;;;;;;;5039610;28;20033;-60
2023/08/18 14:01:54;;;;;;;10.32;8.98;;;;;;;;;;5057132;28;20371;-59
2023/08/18 14:04:19;;;;;;;11.10;9.60;;;;;;;;;;5057212;28;20025;-60
2023/08/18 14:06:45;;;;;;;12.20;9.27;;;;;;;;;;5057284;28;20037;-59
2023/08/18 14:09:10;;;;;;;9.95;8.77;;;;;;;;;;5057142;28;20032;-60
2023/08/18 14:11:35;;;;;;;13.32;9.35;;;;;;;;;;5039062;28;20064;-60
2023/08/18 14:14:01;;;;;;;9.13;7.47;;;;;;;;;;5051731;23;20060;-64
2023/08/18 14:16:26;;;;;;;12.02;7.60;;;;;;;;;;5082424;23;20087;-65
2023/08/18 14:18:52;;;;;;;11.50;8.80;;;;;;;;;;5083342;23;21057;-65
2023/08/18 14:21:18;;;;;;;12.30;8.52;;;;;;;;;;5056542;28;20041;-65
2023/08/18 14:23:43;;;;;;;10.85;8.38;;;;;;;;;;5056792;28;20036;-65
2023/08/18 14:26:08;;;;;;;11.43;8.20;;;;;;;;;;5056295;28;20517;-65
2023/08/18 14:28:34;;;;;;;10.93;8.07;;;;;;;;;;5056720;28;20108;-65
2023/08/18 14:30:59;;;;;;;11.32;9.30;;;;;;;;;;5038935;28;20147;-65
2023/08/18 14:33:24;;;;;;;11.35;9.25;;;;;;;;;;5056399;28;20033;-64